Briefing drone pour Imphy

Rechercher une autre localisation

Conditions de vol :


Nous sommes le : Jeudi 09 février 2023
Il est 23:03 UTC (00:03 LT)

Lever de soleil : 06:34 UTC (07:34 LT)
Coucher de soleil : 17:27 UTC (18:27 LT)

Météo

L'essentiel des conditions de vol

VIGILANCE MÉTÉO FRANCE - Nièvre (58)
Pas de vigilances particulieres
CARTE TEMSI
CARTES DES FRONTS
METAR de LFQG
LFQG 081800Z AUTO VRB01KT CAVOK M01/M05 Q1031

Date d'émission: 08/02/2023
Heure d'émission: 18:00 UTC
Vent: Variable 1 KT (2 km/h)
Visibilité horizontale: > 10 km
Plafond : Plafond et visibilité OK (CAVOK)
Température: -1 °C
Point de rosée: -5 °C
Humidité: 74%
Pression (QNH): 1031 hPa
Prévision 24h pour Nevers (5 km)
Vent : 340° pour 1 KT (4 km/h)
Temperature Maxi: -1 °C
Temperature Min: -1 °C
Humidité : 65%
Condition : Peu nuageux



Warning: count(): Parameter must be an array or an object that implements Countable in /homepages/6/d509196549/htdocs/droneoxygene/briefing.php on line 743
WEBCAM POUR IMPHY

Réglementation

Voler en sécurité

CARTES AERONAUTIQUE 1/500.000
CARTE AZBA (Reseau basse altitude)
CARTES VAC (LFQG)
SUP AIP




Chargement des AIP...
NOTAM (IMPHY + Terrain à proximité / FIR )




Chargement des NOTAMS...
CONTACT PREFECTURE 58
Nièvre (58) : [email protected]


Avertissement : Les données mises à disposition sont indicatives. Oxygène Drone ne pourra être tenu responsable de dégâts causés aux biens et aux personnes.